sensor_id;sensor_type;location;lat;lon;timestamp;temperature;humidity
68691;DHT22;55675;49.588;8.640;2023-06-19T00:01:46;24.10;50.60
68691;DHT22;55675;49.588;8.640;2023-06-19T00:04:11;24.10;49.90
68691;DHT22;55675;49.588;8.640;2023-06-19T00:06:37;24.00;49.60
68691;DHT22;55675;49.588;8.640;2023-06-19T00:09:02;24.00;49.70
68691;DHT22;55675;49.588;8.640;2023-06-19T00:11:28;23.90;49.50
68691;DHT22;55675;49.588;8.640;2023-06-19T00:13:53;24.00;49.80
68691;DHT22;55675;49.588;8.640;2023-06-19T00:16:19;23.90;49.60
68691;DHT22;55675;49.588;8.640;2023-06-19T00:18:45;23.90;49.20
68691;DHT22;55675;49.588;8.640;2023-06-19T00:21:10;23.90;49.10
68691;DHT22;55675;49.588;8.640;2023-06-19T00:23:36;23.90;49.20
68691;DHT22;55675;49.588;8.640;2023-06-19T00:26:01;23.90;49.30
68691;DHT22;55675;49.588;8.640;2023-06-19T00:28:27;23.80;49.30
68691;DHT22;55675;49.588;8.640;2023-06-19T00:30:53;23.80;49.60
68691;DHT22;55675;49.588;8.640;2023-06-19T00:33:18;23.70;49.50
68691;DHT22;55675;49.588;8.640;2023-06-19T00:35:44;23.70;49.50
68691;DHT22;55675;49.588;8.640;2023-06-19T00:38:09;23.70;49.90
68691;DHT22;55675;49.588;8.640;2023-06-19T00:40:34;23.60;49.80
68691;DHT22;55675;49.588;8.640;2023-06-19T00:43:00;23.60;49.90
68691;DHT22;55675;49.588;8.640;2023-06-19T00:45:26;23.50;50.20
68691;DHT22;55675;49.588;8.640;2023-06-19T00:47:52;23.50;50.30
68691;DHT22;55675;49.588;8.640;2023-06-19T00:50:17;23.40;50.30
68691;DHT22;55675;49.588;8.640;2023-06-19T00:52:43;23.40;50.30
68691;DHT22;55675;49.588;8.640;2023-06-19T00:55:08;23.30;50.60
68691;DHT22;55675;49.588;8.640;2023-06-19T00:57:35;23.30;51.20
68691;DHT22;55675;49.588;8.640;2023-06-19T01:00:01;23.10;51.40
68691;DHT22;55675;49.588;8.640;2023-06-19T01:02:29;23.20;51.10
68691;DHT22;55675;49.588;8.640;2023-06-19T01:04:55;23.10;51.00
68691;DHT22;55675;49.588;8.640;2023-06-19T01:07:29;23.10;50.90
68691;DHT22;55675;49.588;8.640;2023-06-19T01:09:57;23.10;51.30
68691;DHT22;55675;49.588;8.640;2023-06-19T01:12:27;22.90;51.10
68691;DHT22;55675;49.588;8.640;2023-06-19T01:14:54;23.00;51.20
68691;DHT22;55675;49.588;8.640;2023-06-19T01:17:21;22.90;51.30
68691;DHT22;55675;49.588;8.640;2023-06-19T01:19:47;22.90;51.20
68691;DHT22;55675;49.588;8.640;2023-06-19T01:22:34;22.90;51.20
68691;DHT22;55675;49.588;8.640;2023-06-19T01:24:59;22.90;51.10
68691;DHT22;55675;49.588;8.640;2023-06-19T01:27:25;22.90;51.20
68691;DHT22;55675;49.588;8.640;2023-06-19T01:29:51;22.90;51.60
68691;DHT22;55675;49.588;8.640;2023-06-19T01:32:24;22.80;51.40
68691;DHT22;55675;49.588;8.640;2023-06-19T01:34:51;22.80;51.30
68691;DHT22;55675;49.588;8.640;2023-06-19T01:37:17;22.80;51.60
68691;DHT22;55675;49.588;8.640;2023-06-19T01:39:43;22.70;51.60
68691;DHT22;55675;49.588;8.640;2023-06-19T01:42:10;22.70;52.70
68691;DHT22;55675;49.588;8.640;2023-06-19T01:44:36;22.60;52.60
68691;DHT22;55675;49.588;8.640;2023-06-19T01:47:09;22.50;53.10
68691;DHT22;55675;49.588;8.640;2023-06-19T01:49:35;22.50;53.20
68691;DHT22;55675;49.588;8.640;2023-06-19T01:52:00;22.40;53.10
68691;DHT22;55675;49.588;8.640;2023-06-19T01:54:26;22.40;53.40
68691;DHT22;55675;49.588;8.640;2023-06-19T01:56:52;22.40;53.50
68691;DHT22;55675;49.588;8.640;2023-06-19T01:59:17;22.40;54.10
68691;DHT22;55675;49.588;8.640;2023-06-19T02:01:43;22.30;55.10
68691;DHT22;55675;49.588;8.640;2023-06-19T02:04:09;22.30;54.40
68691;DHT22;55675;49.588;8.640;2023-06-19T02:06:34;22.30;54.20
68691;DHT22;55675;49.588;8.640;2023-06-19T02:09:00;22.20;54.30
68691;DHT22;55675;49.588;8.640;2023-06-19T02:11:25;22.20;54.80
68691;DHT22;55675;49.588;8.640;2023-06-19T02:13:51;22.30;55.20
68691;DHT22;55675;49.588;8.640;2023-06-19T02:16:16;22.30;55.80
68691;DHT22;55675;49.588;8.640;2023-06-19T02:18:41;22.30;56.10
68691;DHT22;55675;49.588;8.640;2023-06-19T02:21:07;22.40;56.40
68691;DHT22;55675;49.588;8.640;2023-06-19T02:23:32;22.40;56.90
68691;DHT22;55675;49.588;8.640;2023-06-19T02:25:58;22.40;57.30
68691;DHT22;55675;49.588;8.640;2023-06-19T02:28:23;22.50;57.00
68691;DHT22;55675;49.588;8.640;2023-06-19T02:30:49;22.50;57.00
68691;DHT22;55675;49.588;8.640;2023-06-19T02:33:14;22.50;58.10
68691;DHT22;55675;49.588;8.640;2023-06-19T02:35:40;22.60;57.80
68691;DHT22;55675;49.588;8.640;2023-06-19T02:38:07;22.60;57.70
68691;DHT22;55675;49.588;8.640;2023-06-19T02:40:32;22.60;58.00
68691;DHT22;55675;49.588;8.640;2023-06-19T02:42:57;22.70;57.70
68691;DHT22;55675;49.588;8.640;2023-06-19T02:45:23;22.70;57.80
68691;DHT22;55675;49.588;8.640;2023-06-19T02:47:48;22.80;57.80
68691;DHT22;55675;49.588;8.640;2023-06-19T02:50:15;22.80;57.50
68691;DHT22;55675;49.588;8.640;2023-06-19T02:52:40;22.80;58.30
68691;DHT22;55675;49.588;8.640;2023-06-19T02:55:06;22.80;57.90
68691;DHT22;55675;49.588;8.640;2023-06-19T02:57:32;22.90;57.70
68691;DHT22;55675;49.588;8.640;2023-06-19T02:59:58;22.90;58.00
68691;DHT22;55675;49.588;8.640;2023-06-19T03:02:23;22.90;57.70
68691;DHT22;55675;49.588;8.640;2023-06-19T03:04:49;23.00;57.40
68691;DHT22;55675;49.588;8.640;2023-06-19T03:07:15;23.00;57.50
68691;DHT22;55675;49.588;8.640;2023-06-19T03:09:41;23.00;57.60
68691;DHT22;55675;49.588;8.640;2023-06-19T03:12:07;23.10;57.80
68691;DHT22;55675;49.588;8.640;2023-06-19T03:14:33;23.10;57.80
68691;DHT22;55675;49.588;8.640;2023-06-19T03:16:58;23.20;57.50
68691;DHT22;55675;49.588;8.640;2023-06-19T03:19:24;23.20;57.90
68691;DHT22;55675;49.588;8.640;2023-06-19T03:21:49;23.20;58.00
68691;DHT22;55675;49.588;8.640;2023-06-19T03:24:15;23.20;58.30
68691;DHT22;55675;49.588;8.640;2023-06-19T03:26:40;23.20;59.20
68691;DHT22;55675;49.588;8.640;2023-06-19T03:29:05;23.20;58.80
68691;DHT22;55675;49.588;8.640;2023-06-19T03:31:31;23.20;58.00
68691;DHT22;55675;49.588;8.640;2023-06-19T03:33:56;23.20;58.40
68691;DHT22;55675;49.588;8.640;2023-06-19T03:36:22;23.20;58.70
68691;DHT22;55675;49.588;8.640;2023-06-19T03:38:48;23.30;59.80
68691;DHT22;55675;49.588;8.640;2023-06-19T03:41:13;23.20;59.60
68691;DHT22;55675;49.588;8.640;2023-06-19T03:43:39;23.20;59.90
68691;DHT22;55675;49.588;8.640;2023-06-19T03:46:05;23.30;60.00
68691;DHT22;55675;49.588;8.640;2023-06-19T03:48:30;23.20;60.00
68691;DHT22;55675;49.588;8.640;2023-06-19T03:50:56;23.10;60.70
68691;DHT22;55675;49.588;8.640;2023-06-19T03:53:21;23.20;61.40
68691;DHT22;55675;49.588;8.640;2023-06-19T03:55:47;23.20;60.90
68691;DHT22;55675;49.588;8.640;2023-06-19T03:58:12;23.10;61.40
68691;DHT22;55675;49.588;8.640;2023-06-19T04:00:38;23.20;62.70
68691;DHT22;55675;49.588;8.640;2023-06-19T04:03:03;23.10;62.60
68691;DHT22;55675;49.588;8.640;2023-06-19T04:05:28;23.10;62.60
68691;DHT22;55675;49.588;8.640;2023-06-19T04:07:54;23.10;63.50
68691;DHT22;55675;49.588;8.640;2023-06-19T04:10:19;23.10;63.50
68691;DHT22;55675;49.588;8.640;2023-06-19T04:12:45;23.10;63.90
68691;DHT22;55675;49.588;8.640;2023-06-19T04:15:11;23.10;63.50
68691;DHT22;55675;49.588;8.640;2023-06-19T04:17:36;23.10;64.40
68691;DHT22;55675;49.588;8.640;2023-06-19T04:20:02;23.10;64.40
68691;DHT22;55675;49.588;8.640;2023-06-19T04:22:36;23.10;64.30
68691;DHT22;55675;49.588;8.640;2023-06-19T04:25:01;23.10;64.30
68691;DHT22;55675;49.588;8.640;2023-06-19T04:27:27;23.20;64.80
68691;DHT22;55675;49.588;8.640;2023-06-19T04:29:52;23.20;64.60
68691;DHT22;55675;49.588;8.640;2023-06-19T04:32:18;23.20;64.50
68691;DHT22;55675;49.588;8.640;2023-06-19T04:34:44;23.20;64.40
68691;DHT22;55675;49.588;8.640;2023-06-19T04:37:11;23.20;64.60
68691;DHT22;55675;49.588;8.640;2023-06-19T04:39:36;23.20;64.90
68691;DHT22;55675;49.588;8.640;2023-06-19T04:42:02;23.20;65.40
68691;DHT22;55675;49.588;8.640;2023-06-19T04:44:27;23.20;65.20
68691;DHT22;55675;49.588;8.640;2023-06-19T04:46:55;23.20;64.20
68691;DHT22;55675;49.588;8.640;2023-06-19T04:49:27;23.20;64.60
68691;DHT22;55675;49.588;8.640;2023-06-19T04:51:55;23.30;63.90
68691;DHT22;55675;49.588;8.640;2023-06-19T04:54:20;23.40;64.70
68691;DHT22;55675;49.588;8.640;2023-06-19T04:56:46;23.50;63.60
68691;DHT22;55675;49.588;8.640;2023-06-19T04:59:11;23.60;63.50
68691;DHT22;55675;49.588;8.640;2023-06-19T05:01:37;23.60;63.10
68691;DHT22;55675;49.588;8.640;2023-06-19T05:04:05;23.70;63.60
68691;DHT22;55675;49.588;8.640;2023-06-19T05:06:31;23.80;63.30
68691;DHT22;55675;49.588;8.640;2023-06-19T05:08:56;23.80;63.70
68691;DHT22;55675;49.588;8.640;2023-06-19T05:11:22;23.80;63.60
68691;DHT22;55675;49.588;8.640;2023-06-19T05:13:47;23.90;63.20
68691;DHT22;55675;49.588;8.640;2023-06-19T05:16:13;23.90;62.20
68691;DHT22;55675;49.588;8.640;2023-06-19T05:18:42;24.00;62.90
68691;DHT22;55675;49.588;8.640;2023-06-19T05:21:08;24.10;62.00
68691;DHT22;55675;49.588;8.640;2023-06-19T05:23:33;24.10;61.80
68691;DHT22;55675;49.588;8.640;2023-06-19T05:25:58;24.20;62.00
68691;DHT22;55675;49.588;8.640;2023-06-19T05:28:24;24.30;62.90
68691;DHT22;55675;49.588;8.640;2023-06-19T05:30:49;24.30;61.70
68691;DHT22;55675;49.588;8.640;2023-06-19T05:33:15;24.30;61.60
68691;DHT22;55675;49.588;8.640;2023-06-19T05:35:41;24.40;61.90
68691;DHT22;55675;49.588;8.640;2023-06-19T05:38:07;24.50;61.50
68691;DHT22;55675;49.588;8.640;2023-06-19T05:40:32;24.60;61.60
68691;DHT22;55675;49.588;8.640;2023-06-19T05:42:58;24.60;61.20
68691;DHT22;55675;49.588;8.640;2023-06-19T05:45:23;24.60;60.80
68691;DHT22;55675;49.588;8.640;2023-06-19T05:47:48;24.70;61.30
68691;DHT22;55675;49.588;8.640;2023-06-19T05:50:14;24.70;61.10
68691;DHT22;55675;49.588;8.640;2023-06-19T05:52:39;24.80;60.60
68691;DHT22;55675;49.588;8.640;2023-06-19T05:55:09;24.80;60.40
68691;DHT22;55675;49.588;8.640;2023-06-19T05:57:34;24.90;60.50
68691;DHT22;55675;49.588;8.640;2023-06-19T06:00:00;25.00;60.50
68691;DHT22;55675;49.588;8.640;2023-06-19T06:02:25;25.00;60.20
68691;DHT22;55675;49.588;8.640;2023-06-19T06:04:51;25.00;60.00
68691;DHT22;55675;49.588;8.640;2023-06-19T06:07:16;25.10;59.90
68691;DHT22;55675;49.588;8.640;2023-06-19T06:09:42;25.20;60.00
68691;DHT22;55675;49.588;8.640;2023-06-19T06:12:07;25.20;60.00
68691;DHT22;55675;49.588;8.640;2023-06-19T06:14:33;25.20;60.00
68691;DHT22;55675;49.588;8.640;2023-06-19T06:16:58;25.20;59.80
68691;DHT22;55675;49.588;8.640;2023-06-19T06:19:24;25.20;59.70
68691;DHT22;55675;49.588;8.640;2023-06-19T06:21:49;25.20;59.60
68691;DHT22;55675;49.588;8.640;2023-06-19T06:24:15;25.20;60.00
68691;DHT22;55675;49.588;8.640;2023-06-19T06:26:40;25.20;59.60
68691;DHT22;55675;49.588;8.640;2023-06-19T06:29:07;25.30;59.60
68691;DHT22;55675;49.588;8.640;2023-06-19T06:31:32;25.30;59.30
68691;DHT22;55675;49.588;8.640;2023-06-19T06:33:57;25.30;59.30
68691;DHT22;55675;49.588;8.640;2023-06-19T06:36:23;25.40;59.00
68691;DHT22;55675;49.588;8.640;2023-06-19T06:38:50;25.50;59.00
68691;DHT22;55675;49.588;8.640;2023-06-19T06:41:15;25.60;59.50
68691;DHT22;55675;49.588;8.640;2023-06-19T06:43:41;25.70;58.80
68691;DHT22;55675;49.588;8.640;2023-06-19T06:46:09;25.80;58.60
68691;DHT22;55675;49.588;8.640;2023-06-19T06:48:35;25.90;58.80
68691;DHT22;55675;49.588;8.640;2023-06-19T06:51:01;26.00;58.10
68691;DHT22;55675;49.588;8.640;2023-06-19T06:53:27;26.00;58.20
68691;DHT22;55675;49.588;8.640;2023-06-19T06:55:53;26.10;58.70
68691;DHT22;55675;49.588;8.640;2023-06-19T06:58:19;26.20;58.30
68691;DHT22;55675;49.588;8.640;2023-06-19T07:00:44;26.30;58.20
68691;DHT22;55675;49.588;8.640;2023-06-19T07:03:10;26.40;58.70
68691;DHT22;55675;49.588;8.640;2023-06-19T07:05:35;26.40;58.10
68691;DHT22;55675;49.588;8.640;2023-06-19T07:08:01;26.30;58.20
68691;DHT22;55675;49.588;8.640;2023-06-19T07:10:27;26.30;58.40
68691;DHT22;55675;49.588;8.640;2023-06-19T07:12:52;26.40;58.50
68691;DHT22;55675;49.588;8.640;2023-06-19T07:15:18;26.50;58.60
68691;DHT22;55675;49.588;8.640;2023-06-19T07:17:44;26.50;58.30
68691;DHT22;55675;49.588;8.640;2023-06-19T07:20:09;26.60;57.90
68691;DHT22;55675;49.588;8.640;2023-06-19T07:22:35;26.60;57.80
68691;DHT22;55675;49.588;8.640;2023-06-19T07:25:00;26.70;58.10
68691;DHT22;55675;49.588;8.640;2023-06-19T07:27:26;26.80;58.10
68691;DHT22;55675;49.588;8.640;2023-06-19T07:29:53;26.90;57.30
68691;DHT22;55675;49.588;8.640;2023-06-19T07:32:18;26.80;57.50
68691;DHT22;55675;49.588;8.640;2023-06-19T07:34:45;26.90;57.30
68691;DHT22;55675;49.588;8.640;2023-06-19T07:37:11;27.00;57.00
68691;DHT22;55675;49.588;8.640;2023-06-19T07:39:49;27.10;57.10
68691;DHT22;55675;49.588;8.640;2023-06-19T07:42:15;27.30;56.60
68691;DHT22;55675;49.588;8.640;2023-06-19T07:44:41;27.60;56.40
68691;DHT22;55675;49.588;8.640;2023-06-19T07:47:07;27.80;55.90
68691;DHT22;55675;49.588;8.640;2023-06-19T07:49:33;28.00;54.50
68691;DHT22;55675;49.588;8.640;2023-06-19T07:51:59;28.00;54.40
68691;DHT22;55675;49.588;8.640;2023-06-19T07:54:24;28.00;54.20
68691;DHT22;55675;49.588;8.640;2023-06-19T07:56:50;28.30;54.00
68691;DHT22;55675;49.588;8.640;2023-06-19T07:59:15;28.40;54.00
68691;DHT22;55675;49.588;8.640;2023-06-19T08:01:48;28.50;53.50
68691;DHT22;55675;49.588;8.640;2023-06-19T08:04:14;28.50;53.90
68691;DHT22;55675;49.588;8.640;2023-06-19T08:06:40;28.60;53.90
68691;DHT22;55675;49.588;8.640;2023-06-19T08:09:05;28.70;53.30
68691;DHT22;55675;49.588;8.640;2023-06-19T08:11:31;28.70;53.30
68691;DHT22;55675;49.588;8.640;2023-06-19T08:13:57;28.80;53.00
68691;DHT22;55675;49.588;8.640;2023-06-19T08:16:25;28.70;52.50
68691;DHT22;55675;49.588;8.640;2023-06-19T08:18:51;28.70;52.60
68691;DHT22;55675;49.588;8.640;2023-06-19T08:21:16;28.70;52.50
68691;DHT22;55675;49.588;8.640;2023-06-19T08:23:42;28.80;53.10
68691;DHT22;55675;49.588;8.640;2023-06-19T08:26:09;28.80;52.90
68691;DHT22;55675;49.588;8.640;2023-06-19T08:28:35;28.80;52.30
68691;DHT22;55675;49.588;8.640;2023-06-19T08:31:00;28.70;52.40
68691;DHT22;55675;49.588;8.640;2023-06-19T08:33:26;28.50;52.60
68691;DHT22;55675;49.588;8.640;2023-06-19T08:35:51;28.50;53.30
68691;DHT22;55675;49.588;8.640;2023-06-19T08:38:18;28.50;53.20
68691;DHT22;55675;49.588;8.640;2023-06-19T08:40:44;28.50;53.40
68691;DHT22;55675;49.588;8.640;2023-06-19T08:43:10;28.50;53.50
68691;DHT22;55675;49.588;8.640;2023-06-19T08:45:36;28.60;53.20
68691;DHT22;55675;49.588;8.640;2023-06-19T08:48:03;28.60;53.20
68691;DHT22;55675;49.588;8.640;2023-06-19T08:50:33;28.70;53.50
68691;DHT22;55675;49.588;8.640;2023-06-19T08:52:59;28.80;52.90
68691;DHT22;55675;49.588;8.640;2023-06-19T08:55:25;28.80;52.40
68691;DHT22;55675;49.588;8.640;2023-06-19T08:57:51;29.00;52.70
68691;DHT22;55675;49.588;8.640;2023-06-19T09:00:29;29.20;51.70
68691;DHT22;55675;49.588;8.640;2023-06-19T09:03:02;29.40;52.00
68691;DHT22;55675;49.588;8.640;2023-06-19T09:05:28;29.70;50.90
68691;DHT22;55675;49.588;8.640;2023-06-19T09:08:00;29.90;50.60
68691;DHT22;55675;49.588;8.640;2023-06-19T09:10:26;30.20;50.40
68691;DHT22;55675;49.588;8.640;2023-06-19T09:13:01;30.30;49.20
68691;DHT22;55675;49.588;8.640;2023-06-19T09:15:32;30.20;49.60
68691;DHT22;55675;49.588;8.640;2023-06-19T09:20:29;29.90;49.00
68691;DHT22;55675;49.588;8.640;2023-06-19T09:22:56;30.00;49.70
68691;DHT22;55675;49.588;8.640;2023-06-19T09:25:22;30.20;49.90
68691;DHT22;55675;49.588;8.640;2023-06-19T09:27:49;30.30;49.50
68691;DHT22;55675;49.588;8.640;2023-06-19T09:30:17;30.40;49.10
68691;DHT22;55675;49.588;8.640;2023-06-19T09:32:43;30.50;49.20
68691;DHT22;55675;49.588;8.640;2023-06-19T09:35:09;30.50;48.00
68691;DHT22;55675;49.588;8.640;2023-06-19T09:37:35;30.30;47.80
68691;DHT22;55675;49.588;8.640;2023-06-19T09:40:05;30.20;48.80
68691;DHT22;55675;49.588;8.640;2023-06-19T09:42:40;30.40;48.90
68691;DHT22;55675;49.588;8.640;2023-06-19T09:45:08;30.50;48.70
68691;DHT22;55675;49.588;8.640;2023-06-19T09:50:03;30.60;48.30
68691;DHT22;55675;49.588;8.640;2023-06-19T09:52:29;30.60;48.70
68691;DHT22;55675;49.588;8.640;2023-06-19T09:54:55;30.50;48.30
68691;DHT22;55675;49.588;8.640;2023-06-19T09:57:23;30.50;48.70
68691;DHT22;55675;49.588;8.640;2023-06-19T09:59:52;30.70;48.70
68691;DHT22;55675;49.588;8.640;2023-06-19T10:02:19;30.80;48.50
68691;DHT22;55675;49.588;8.640;2023-06-19T10:04:49;31.10;46.90
68691;DHT22;55675;49.588;8.640;2023-06-19T10:07:19;31.00;47.20
68691;DHT22;55675;49.588;8.640;2023-06-19T10:10:32;31.10;47.70
68691;DHT22;55675;49.588;8.640;2023-06-19T10:13:10;31.10;47.00
68691;DHT22;55675;49.588;8.640;2023-06-19T10:15:44;31.30;46.80
68691;DHT22;55675;49.588;8.640;2023-06-19T10:18:15;31.50;46.70
68691;DHT22;55675;49.588;8.640;2023-06-19T10:20:44;31.60;45.90
68691;DHT22;55675;49.588;8.640;2023-06-19T10:23:16;31.70;46.30
68691;DHT22;55675;49.588;8.640;2023-06-19T10:25:45;31.80;45.40
68691;DHT22;55675;49.588;8.640;2023-06-19T10:28:28;31.80;45.40
68691;DHT22;55675;49.588;8.640;2023-06-19T10:31:02;31.80;45.20
68691;DHT22;55675;49.588;8.640;2023-06-19T10:33:30;31.90;45.00
68691;DHT22;55675;49.588;8.640;2023-06-19T10:35:58;32.20;45.10
68691;DHT22;55675;49.588;8.640;2023-06-19T10:38:25;32.10;42.60
68691;DHT22;55675;49.588;8.640;2023-06-19T10:40:51;31.90;42.90
68691;DHT22;55675;49.588;8.640;2023-06-19T10:43:21;32.00;43.20
68691;DHT22;55675;49.588;8.640;2023-06-19T10:45:48;32.00;43.50
68691;DHT22;55675;49.588;8.640;2023-06-19T10:48:22;32.30;44.20
68691;DHT22;55675;49.588;8.640;2023-06-19T10:50:48;32.30;42.50
68691;DHT22;55675;49.588;8.640;2023-06-19T10:53:29;32.40;42.60
68691;DHT22;55675;49.588;8.640;2023-06-19T10:56:00;32.60;42.70
68691;DHT22;55675;49.588;8.640;2023-06-19T10:58:27;32.80;43.00
68691;DHT22;55675;49.588;8.640;2023-06-19T11:00:52;32.90;42.40
68691;DHT22;55675;49.588;8.640;2023-06-19T11:03:19;33.00;42.00
68691;DHT22;55675;49.588;8.640;2023-06-19T11:05:45;33.00;42.20
68691;DHT22;55675;49.588;8.640;2023-06-19T11:08:11;33.10;42.20
68691;DHT22;55675;49.588;8.640;2023-06-19T11:10:42;33.10;42.00
68691;DHT22;55675;49.588;8.640;2023-06-19T11:13:07;33.20;41.60
68691;DHT22;55675;49.588;8.640;2023-06-19T11:15:38;33.20;41.00
68691;DHT22;55675;49.588;8.640;2023-06-19T11:18:04;33.30;41.00
68691;DHT22;55675;49.588;8.640;2023-06-19T11:20:30;33.40;41.00
68691;DHT22;55675;49.588;8.640;2023-06-19T11:23:00;33.40;40.00
68691;DHT22;55675;49.588;8.640;2023-06-19T11:25:40;33.30;40.60
68691;DHT22;55675;49.588;8.640;2023-06-19T11:28:13;33.30;41.00
68691;DHT22;55675;49.588;8.640;2023-06-19T11:30:39;33.10;40.10
68691;DHT22;55675;49.588;8.640;2023-06-19T11:33:16;33.00;40.60
68691;DHT22;55675;49.588;8.640;2023-06-19T11:35:47;32.90;40.20
68691;DHT22;55675;49.588;8.640;2023-06-19T11:38:17;32.90;40.60
68691;DHT22;55675;49.588;8.640;2023-06-19T11:40:43;33.00;41.20
68691;DHT22;55675;49.588;8.640;2023-06-19T11:43:08;33.10;41.10
68691;DHT22;55675;49.588;8.640;2023-06-19T11:45:45;33.30;40.20
68691;DHT22;55675;49.588;8.640;2023-06-19T11:48:10;33.40;40.00
68691;DHT22;55675;49.588;8.640;2023-06-19T11:50:38;33.30;39.00
68691;DHT22;55675;49.588;8.640;2023-06-19T11:53:03;33.10;39.60
68691;DHT22;55675;49.588;8.640;2023-06-19T11:55:29;33.20;39.00
68691;DHT22;55675;49.588;8.640;2023-06-19T11:57:55;33.30;39.60
68691;DHT22;55675;49.588;8.640;2023-06-19T12:00:20;33.40;39.10
68691;DHT22;55675;49.588;8.640;2023-06-19T12:02:46;33.60;39.60
68691;DHT22;55675;49.588;8.640;2023-06-19T12:05:13;34.00;39.30
68691;DHT22;55675;49.588;8.640;2023-06-19T12:07:39;34.60;38.80
68691;DHT22;55675;49.588;8.640;2023-06-19T12:10:05;35.00;38.10
68691;DHT22;55675;49.588;8.640;2023-06-19T12:12:36;35.40;36.70
68691;DHT22;55675;49.588;8.640;2023-06-19T12:15:02;35.40;35.90
68691;DHT22;55675;49.588;8.640;2023-06-19T12:17:27;35.40;35.40
68691;DHT22;55675;49.588;8.640;2023-06-19T12:19:53;35.40;35.50
68691;DHT22;55675;49.588;8.640;2023-06-19T12:22:19;35.60;36.10
68691;DHT22;55675;49.588;8.640;2023-06-19T12:24:44;35.70;35.50
68691;DHT22;55675;49.588;8.640;2023-06-19T12:27:10;35.50;34.60
68691;DHT22;55675;49.588;8.640;2023-06-19T12:29:35;35.30;33.90
68691;DHT22;55675;49.588;8.640;2023-06-19T12:32:01;35.20;34.50
68691;DHT22;55675;49.588;8.640;2023-06-19T12:34:30;35.20;36.00
68691;DHT22;55675;49.588;8.640;2023-06-19T12:36:56;35.20;36.00
68691;DHT22;55675;49.588;8.640;2023-06-19T12:39:22;35.20;37.00
68691;DHT22;55675;49.588;8.640;2023-06-19T12:41:48;35.20;36.20
68691;DHT22;55675;49.588;8.640;2023-06-19T12:44:13;35.00;36.00
68691;DHT22;55675;49.588;8.640;2023-06-19T12:46:39;34.90;36.40
68691;DHT22;55675;49.588;8.640;2023-06-19T12:49:05;35.00;37.20
68691;DHT22;55675;49.588;8.640;2023-06-19T12:51:30;35.10;36.50
68691;DHT22;55675;49.588;8.640;2023-06-19T12:53:56;35.20;37.00
68691;DHT22;55675;49.588;8.640;2023-06-19T12:56:21;35.40;36.90
68691;DHT22;55675;49.588;8.640;2023-06-19T12:58:47;35.60;35.60
68691;DHT22;55675;49.588;8.640;2023-06-19T13:01:12;35.60;35.00
68691;DHT22;55675;49.588;8.640;2023-06-19T13:03:38;35.90;34.80
68691;DHT22;55675;49.588;8.640;2023-06-19T13:06:03;36.00;35.20
68691;DHT22;55675;49.588;8.640;2023-06-19T13:08:29;36.30;34.50
68691;DHT22;55675;49.588;8.640;2023-06-19T13:10:54;36.50;34.40
68691;DHT22;55675;49.588;8.640;2023-06-19T13:13:20;36.90;34.90
68691;DHT22;55675;49.588;8.640;2023-06-19T13:15:45;37.20;33.80
68691;DHT22;55675;49.588;8.640;2023-06-19T13:18:11;37.30;33.40
68691;DHT22;55675;49.588;8.640;2023-06-19T13:20:36;37.50;31.90
68691;DHT22;55675;49.588;8.640;2023-06-19T13:23:02;37.70;31.60
68691;DHT22;55675;49.588;8.640;2023-06-19T13:25:28;37.60;31.70
68691;DHT22;55675;49.588;8.640;2023-06-19T13:27:53;37.70;31.70
68691;DHT22;55675;49.588;8.640;2023-06-19T13:30:19;37.70;31.40
68691;DHT22;55675;49.588;8.640;2023-06-19T13:32:45;37.70;31.80
68691;DHT22;55675;49.588;8.640;2023-06-19T13:35:10;38.00;31.40
68691;DHT22;55675;49.588;8.640;2023-06-19T13:37:37;38.20;31.80
68691;DHT22;55675;49.588;8.640;2023-06-19T13:40:04;38.50;31.70
68691;DHT22;55675;49.588;8.640;2023-06-19T13:42:30;38.80;31.10
68691;DHT22;55675;49.588;8.640;2023-06-19T13:44:56;39.30;30.60
68691;DHT22;55675;49.588;8.640;2023-06-19T13:47:22;39.70;30.30
68691;DHT22;55675;49.588;8.640;2023-06-19T13:49:50;40.10;29.50
68691;DHT22;55675;49.588;8.640;2023-06-19T13:52:16;40.30;28.60
68691;DHT22;55675;49.588;8.640;2023-06-19T13:54:42;40.30;28.70
68691;DHT22;55675;49.588;8.640;2023-06-19T13:57:07;40.60;28.60
68691;DHT22;55675;49.588;8.640;2023-06-19T13:59:33;41.50;28.40
68691;DHT22;55675;49.588;8.640;2023-06-19T14:01:58;42.60;27.00
68691;DHT22;55675;49.588;8.640;2023-06-19T14:04:24;43.20;26.00
68691;DHT22;55675;49.588;8.640;2023-06-19T14:06:49;43.80;25.80
68691;DHT22;55675;49.588;8.640;2023-06-19T14:09:15;44.70;25.60
68691;DHT22;55675;49.588;8.640;2023-06-19T14:11:40;45.20;24.60
68691;DHT22;55675;49.588;8.640;2023-06-19T14:14:06;45.20;24.30
68691;DHT22;55675;49.588;8.640;2023-06-19T14:16:32;45.60;23.90
68691;DHT22;55675;49.588;8.640;2023-06-19T14:18:58;45.40;23.50
68691;DHT22;55675;49.588;8.640;2023-06-19T14:21:23;44.30;23.90
68691;DHT22;55675;49.588;8.640;2023-06-19T14:23:49;43.30;24.70
68691;DHT22;55675;49.588;8.640;2023-06-19T14:26:15;42.60;25.10
68691;DHT22;55675;49.588;8.640;2023-06-19T14:28:40;42.20;25.70
68691;DHT22;55675;49.588;8.640;2023-06-19T14:31:06;43.40;26.70
68691;DHT22;55675;49.588;8.640;2023-06-19T14:33:31;46.00;24.40
68691;DHT22;55675;49.588;8.640;2023-06-19T14:35:59;47.70;22.50
68691;DHT22;55675;49.588;8.640;2023-06-19T14:38:24;49.00;21.80
68691;DHT22;55675;49.588;8.640;2023-06-19T14:40:53;50.20;20.40
68691;DHT22;55675;49.588;8.640;2023-06-19T14:43:18;48.90;20.60
68691;DHT22;55675;49.588;8.640;2023-06-19T14:45:44;47.30;21.20
68691;DHT22;55675;49.588;8.640;2023-06-19T14:48:09;45.60;21.80
68691;DHT22;55675;49.588;8.640;2023-06-19T14:50:35;44.20;23.00
68691;DHT22;55675;49.588;8.640;2023-06-19T14:53:00;43.20;24.20
68691;DHT22;55675;49.588;8.640;2023-06-19T14:55:26;42.10;24.20
68691;DHT22;55675;49.588;8.640;2023-06-19T14:57:51;41.10;25.60
68691;DHT22;55675;49.588;8.640;2023-06-19T15:00:17;40.50;26.20
68691;DHT22;55675;49.588;8.640;2023-06-19T15:02:42;39.80;26.60
68691;DHT22;55675;49.588;8.640;2023-06-19T15:05:08;39.30;27.10
68691;DHT22;55675;49.588;8.640;2023-06-19T15:07:33;39.40;27.90
68691;DHT22;55675;49.588;8.640;2023-06-19T15:09:59;40.50;28.20
68691;DHT22;55675;49.588;8.640;2023-06-19T15:12:24;41.50;27.00
68691;DHT22;55675;49.588;8.640;2023-06-19T15:14:50;42.70;26.60
68691;DHT22;55675;49.588;8.640;2023-06-19T15:17:15;44.10;25.50
68691;DHT22;55675;49.588;8.640;2023-06-19T15:19:42;44.10;24.70
68691;DHT22;55675;49.588;8.640;2023-06-19T15:22:07;43.40;25.00
68691;DHT22;55675;49.588;8.640;2023-06-19T15:24:33;42.30;24.90
68691;DHT22;55675;49.588;8.640;2023-06-19T15:26:58;41.40;25.90
68691;DHT22;55675;49.588;8.640;2023-06-19T15:29:25;40.70;26.70
68691;DHT22;55675;49.588;8.640;2023-06-19T15:31:51;40.20;28.00